Pagrindinis puslapis
METAR-TAF:

METAR-TAF

Oro uostai :

Pensacola Regional Airport

Pensakola, Florida, Jungtinės Amerikos Valstijos

platuma: 30-28-41N, ilguma: 087-11-13W, Aukštis: 36 m

Dabartinis oras

Ataskaita buvo paskelbta 50 minutes, ne 21:53 UTC
Vėjas 5 kt iš Pietų/Pietryčių
Temperatūra 30°C
Drėgmė 66%
Slėgis 1014 hPa
Matomumas: 16.1 km
Giedras dangus

METAR: KPNS 242153Z 15005KT 10SM CLR 30/23 A2995 RMK AO2 SLP144 T03000228

Laikas: 17:43 (22:43 UTC)

Prognozė

Ataskaita buvo paskelbta 5 valandos ir 5 minutes, ne 17:38 UTC
Prognozė galioja nuo 24 metu 18 UTC su 25 metu 18 UTC
Vėjas 8 kt iš Pietų
Matomumas: 10 km
Išsisklaidę debesys ne aukštis 3500 ft
Nuo 25 metu 0200 UTC
Vėjas 3 kt nuo kintamojo kryptimis
Matomumas: 10 km
Mažai debesys ne aukštis 25000 ft

TAF: KPNS 241738Z 2418/2518 17008KT P6SM SCT035 FM250200 VRB03KT P6SM FEW250

Orai ataskaitas ir orų prognozės (METAR, TAF).

turimą stotys yra geltonos ir raudonos taškus žemėlapyje.

Perkelti pele per norėdami pamatyti stoties vardą.

Tada spustelėkite, norėdami matyti oro stebėjimo ir prognozės.

Norėdami pakeisti žemėlapį: spustelėkite ant žalios mygtukų su juodo kryžiaus žemyn,; žalią mygtuką su brūkšneliu, jei norite nutolinti; arba žalių rodyklių gretimoms žemėlapius.


METAR-TAF: